Time;durP1;ratioP1;P1;durP2;ratioP2;P2;SDS_P1;SDS_P2;PMS_P1;PMS_P2;Temp;Humidity;BMP_temperature;BMP_pressure;BME280_temperature;BME280_humidity;BME280_pressure;Samples;Min_cycle;Max_cycle;Signal;HPM_P1;HPM_P2
2024/04/07 00:02:06;;;;;;;;;71.00;53.33;;;;;;;;4995475;27;98761;-79
2024/04/07 00:04:32;;;;;;;;;64.33;50.33;;;;;;;;4994264;27;93512;-78
2024/04/07 00:06:57;;;;;;;;;50.75;44.00;;;;;;;;4998467;27;93530;-77
2024/04/07 00:09:23;;;;;;;;;46.25;38.75;;;;;;;;4986566;27;94595;-78
2024/04/07 00:11:49;;;;;;;;;66.33;50.00;;;;;;;;4993340;28;93925;-77
2024/04/07 00:14:14;;;;;;;;;70.67;54.33;;;;;;;;4993910;27;93317;-77
2024/04/07 00:16:40;;;;;;;;;66.33;52.33;;;;;;;;4997062;27;93494;-78
2024/04/07 00:19:06;;;;;;;;;70.00;54.33;;;;;;;;4989072;27;95685;-77
2024/04/07 00:21:31;;;;;;;;;67.00;52.33;;;;;;;;4989388;27;94865;-77
2024/04/07 00:24:00;;;;;;;;;69.67;54.33;;;;;;;;4995509;27;93806;-78
2024/04/07 00:26:26;;;;;;;;;78.33;57.67;;;;;;;;4992193;27;93319;-77
2024/04/07 00:28:51;;;;;;;;;71.33;53.00;;;;;;;;4993912;27;95730;-77
2024/04/07 00:31:16;;;;;;;;;56.67;47.00;;;;;;;;4975760;27;93971;-77
2024/04/07 00:33:42;;;;;;;;;47.75;37.75;;;;;;;;4993412;28;93618;-78
2024/04/07 00:36:09;;;;;;;;;43.25;35.75;;;;;;;;4994555;27;93703;-78
2024/04/07 00:38:34;;;;;;;;;42.00;33.00;;;;;;;;4990375;27;96126;-79
2024/04/07 00:41:00;;;;;;;;;61.00;49.00;;;;;;;;4997027;27;93923;-79
2024/04/07 00:43:26;;;;;;;;;70.33;52.33;;;;;;;;4981221;27;95957;-78
2024/04/07 00:45:53;;;;;;;;;57.33;47.00;;;;;;;;4994402;27;95150;-78
2024/04/07 00:48:18;;;;;;;;;70.00;50.33;;;;;;;;4994697;27;95653;-77
2024/04/07 00:50:48;;;;;;;;;72.33;57.33;;;;;;;;4996446;27;93333;-78
2024/04/07 00:53:14;;;;;;;;;69.33;53.00;;;;;;;;4990191;27;93549;-77
2024/04/07 00:55:41;;;;;;;;;63.67;51.00;;;;;;;;4989833;27;93722;-78
2024/04/07 00:58:10;;;;;;;;;49.00;39.75;;;;;;;;4989412;28;94963;-78
2024/04/07 01:00:36;;;;;;;;;42.00;37.50;;;;;;;;4998240;27;93343;-78
2024/04/07 01:03:01;;;;;;;;;36.50;28.75;;;;;;;;4988263;27;93521;-78
2024/04/07 01:05:26;;;;;;;;;28.50;24.50;;;;;;;;4988245;27;93863;-78
2024/04/07 01:07:54;;;;;;;;;54.75;43.00;;;;;;;;4992633;28;95721;-78
2024/04/07 01:10:20;;;;;;;;;60.00;48.00;;;;;;;;5001261;27;95670;-75
2024/04/07 01:12:52;;;;;;;;;64.33;51.67;;;;;;;;4998352;27;95590;-78
2024/04/07 01:15:18;;;;;;;;;61.33;49.00;;;;;;;;4983133;27;96409;-78
2024/04/07 01:17:43;;;;;;;;;66.00;51.33;;;;;;;;4987288;27;100055;-78
2024/04/07 01:20:10;;;;;;;;;22.67;15.00;;;;;;;;4990488;27;93738;-78
2024/04/07 01:22:35;;;;;;;;;57.25;40.25;;;;;;;;4997989;27;94127;-77
2024/04/07 01:25:01;;;;;;;;;56.25;43.25;;;;;;;;4996929;27;93986;-78
2024/04/07 01:27:26;;;;;;;;;53.75;43.75;;;;;;;;4988342;27;96047;-78
2024/04/07 01:29:52;;;;;;;;;55.50;44.50;;;;;;;;4996349;27;93629;-78
2024/04/07 01:32:17;;;;;;;;;53.50;45.75;;;;;;;;4992115;28;93463;-78
2024/04/07 01:34:43;;;;;;;;;48.25;40.25;;;;;;;;4995636;27;93644;-78
2024/04/07 01:37:08;;;;;;;;;45.75;37.00;;;;;;;;4982093;27;95494;-78
2024/04/07 01:39:34;;;;;;;;;31.00;28.00;;;;;;;;4986152;27;93859;-77
2024/04/07 01:41:59;;;;;;;;;30.25;26.00;;;;;;;;4986095;27;93368;-77
2024/04/07 01:44:25;;;;;;;;;25.00;22.75;;;;;;;;4993032;27;93776;-78
2024/04/07 01:46:50;;;;;;;;;35.00;30.50;;;;;;;;4987248;27;95551;-77
2024/04/07 01:49:15;;;;;;;;;42.75;37.50;;;;;;;;4992175;27;93634;-78
2024/04/07 01:51:41;;;;;;;;;36.50;34.00;;;;;;;;4976027;27;93606;-78
2024/04/07 01:54:07;;;;;;;;;27.75;24.50;;;;;;;;4993821;28;93260;-78
2024/04/07 01:56:32;;;;;;;;;24.50;21.25;;;;;;;;4997783;27;95732;-77
2024/04/07 01:58:57;;;;;;;;;21.50;20.00;;;;;;;;5001240;27;93826;-78
2024/04/07 02:01:23;;;;;;;;;27.00;25.00;;;;;;;;4984243;27;93464;-77
2024/04/07 02:03:48;;;;;;;;;27.75;26.50;;;;;;;;5000537;27;95512;-71
2024/04/07 02:06:14;;;;;;;;;38.75;32.50;;;;;;;;4998876;28;94721;-78
2024/04/07 02:08:39;;;;;;;;;39.75;35.50;;;;;;;;4995651;27;94926;-78
2024/04/07 02:11:05;;;;;;;;;54.00;43.25;;;;;;;;4993182;28;95011;-78
2024/04/07 02:13:30;;;;;;;;;58.67;44.00;;;;;;;;4993961;27;96057;-78
2024/04/07 02:15:59;;;;;;;;;58.00;46.33;;;;;;;;4994432;27;95689;-78
2024/04/07 02:18:26;;;;;;;;;54.50;43.25;;;;;;;;5001043;27;93569;-77
2024/04/07 02:20:51;;;;;;;;;37.50;35.00;;;;;;;;4996058;27;93576;-78
2024/04/07 02:23:17;;;;;;;;;33.50;30.00;;;;;;;;4985941;28;93719;-77
2024/04/07 02:25:42;;;;;;;;;52.25;43.75;;;;;;;;4990661;27;97298;-78
2024/04/07 02:28:08;;;;;;;;;49.00;41.00;;;;;;;;4983961;27;93863;-77
2024/04/07 02:30:37;;;;;;;;;50.50;41.50;;;;;;;;4996766;27;95746;-77
2024/04/07 02:33:04;;;;;;;;;59.33;47.33;;;;;;;;5000673;27;93891;-77
2024/04/07 02:35:31;;;;;;;;;65.00;51.33;;;;;;;;4996501;27;95643;-77
2024/04/07 02:37:57;;;;;;;;;61.33;51.00;;;;;;;;4994418;27;93533;-77
2024/04/07 02:40:22;;;;;;;;;53.67;43.67;;;;;;;;4996621;27;93946;-77
2024/04/07 02:42:48;;;;;;;;;61.33;48.00;;;;;;;;4994153;28;93674;-78
2024/04/07 02:48:04;;;;;;;;;42.75;37.75;;;;;;;;4993233;27;93378;-77
2024/04/07 02:50:33;;;;;;;;;54.25;43.00;;;;;;;;4993850;27;94272;-77
2024/04/07 02:52:59;;;;;;;;;52.25;39.00;;;;;;;;4993749;27;94315;-77
2024/04/07 02:55:24;;;;;;;;;49.25;41.25;;;;;;;;4979798;27;95842;-77
2024/04/07 02:57:50;;;;;;;;;54.00;44.33;;;;;;;;4996571;27;98815;-71
2024/04/07 03:00:15;;;;;;;;;57.33;44.67;;;;;;;;4990879;28;93780;-78
2024/04/07 03:02:41;;;;;;;;;41.50;35.50;;;;;;;;4994134;27;93438;-78
2024/04/07 03:05:07;;;;;;;;;37.75;30.25;;;;;;;;4992704;27;95568;-77
2024/04/07 03:07:34;;;;;;;;;30.00;28.50;;;;;;;;4989624;27;93633;-78
2024/04/07 03:10:00;;;;;;;;;42.75;35.00;;;;;;;;4997489;27;95260;-77
2024/04/07 03:12:27;;;;;;;;;52.00;41.67;;;;;;;;4992943;27;93783;-77
2024/04/07 03:14:52;;;;;;;;;57.67;45.00;;;;;;;;4972370;28;95567;-78
2024/04/07 03:17:18;;;;;;;;;56.33;46.00;;;;;;;;4983186;27;93897;-78
2024/04/07 03:19:43;;;;;;;;;58.00;45.00;;;;;;;;4989276;28;96415;-77
2024/04/07 03:22:09;;;;;;;;;54.00;45.33;;;;;;;;4991989;27;93696;-78
2024/04/07 03:24:34;;;;;;;;;50.00;40.75;;;;;;;;4993089;27;95587;-78
2024/04/07 03:27:00;;;;;;;;;45.50;39.50;;;;;;;;4979881;27;96375;-78
2024/04/07 03:29:25;;;;;;;;;39.00;33.75;;;;;;;;4987807;27;95389;-77
2024/04/07 03:31:51;;;;;;;;;47.75;40.25;;;;;;;;4990809;27;95603;-77
2024/04/07 03:34:16;;;;;;;;;41.75;38.00;;;;;;;;4995342;27;95809;-77
2024/04/07 03:36:41;;;;;;;;;28.25;24.50;;;;;;;;5012619;27;93656;-77
2024/04/07 03:39:07;;;;;;;;;25.50;23.50;;;;;;;;4984682;27;93498;-78
2024/04/07 03:41:34;;;;;;;;;27.75;23.25;;;;;;;;4988361;27;94246;-77
2024/04/07 03:43:59;;;;;;;;;21.75;19.25;;;;;;;;4995228;27;95636;-78
2024/04/07 03:46:25;;;;;;;;;31.50;28.25;;;;;;;;4994546;28;94350;-78
2024/04/07 03:48:52;;;;;;;;;29.75;23.25;;;;;;;;4993677;27;93326;-77
2024/04/07 03:51:18;;;;;;;;;17.75;16.75;;;;;;;;4971637;27;93376;-77
2024/04/07 03:53:43;;;;;;;;;15.25;13.50;;;;;;;;4991749;28;95605;-78
2024/04/07 03:56:08;;;;;;;;;21.75;17.00;;;;;;;;4990596;28;93830;-77
2024/04/07 03:58:34;;;;;;;;;20.75;18.25;;;;;;;;4992370;27;93297;-78
2024/04/07 04:01:00;;;;;;;;;28.75;25.50;;;;;;;;4995348;27;93280;-78
2024/04/07 04:03:26;;;;;;;;;26.25;23.00;;;;;;;;4983696;27;95613;-78
2024/04/07 04:05:55;;;;;;;;;24.75;22.25;;;;;;;;4991461;27;95282;-76
2024/04/07 04:08:20;;;;;;;;;21.75;18.00;;;;;;;;4997261;27;93649;-75
2024/04/07 04:10:46;;;;;;;;;36.00;28.25;;;;;;;;4997838;28;93821;-78
2024/04/07 04:13:11;;;;;;;;;44.25;37.00;;;;;;;;4978970;27;95849;-77
2024/04/07 04:15:37;;;;;;;;;44.75;35.25;;;;;;;;4991875;27;93577;-77
2024/04/07 04:18:05;;;;;;;;;36.25;30.75;;;;;;;;4991179;27;93498;-77
2024/04/07 04:20:31;;;;;;;;;36.25;32.00;;;;;;;;4996631;27;96281;-77
2024/04/07 04:22:57;;;;;;;;;30.25;29.00;;;;;;;;4982599;27;95567;-77
2024/04/07 04:25:22;;;;;;;;;24.25;20.25;;;;;;;;4978988;27;93512;-76
2024/04/07 04:27:48;;;;;;;;;23.25;19.25;;;;;;;;4992917;28;94501;-76
2024/04/07 04:30:14;;;;;;;;;22.75;18.75;;;;;;;;4990822;27;96140;-78
2024/04/07 04:32:39;;;;;;;;;20.00;15.00;;;;;;;;4990395;28;95595;-78
2024/04/07 04:35:05;;;;;;;;;21.00;15.50;;;;;;;;4989052;27;93710;-78
2024/04/07 04:37:31;;;;;;;;;21.75;21.00;;;;;;;;4980996;27;93480;-78
2024/04/07 04:39:58;;;;;;;;;19.25;15.75;;;;;;;;4990771;27;93265;-77
2024/04/07 04:42:24;;;;;;;;;25.00;24.50;;;;;;;;4990819;28;95650;-78
2024/04/07 04:44:50;;;;;;;;;30.00;27.00;;;;;;;;4989221;27;93800;-71
2024/04/07 04:47:15;;;;;;;;;31.00;29.00;;;;;;;;4976550;27;93641;-76
2024/04/07 04:49:41;;;;;;;;;38.25;36.75;;;;;;;;4998465;27;94876;-77
2024/04/07 04:52:06;;;;;;;;;43.25;35.25;;;;;;;;4991696;28;95754;-77
2024/04/07 04:54:31;;;;;;;;;35.00;32.00;;;;;;;;4988795;27;93767;-77
2024/04/07 04:56:57;;;;;;;;;36.75;32.50;;;;;;;;4990003;28;93368;-77
2024/04/07 04:59:22;;;;;;;;;29.25;27.25;;;;;;;;4988053;27;93594;-77
2024/04/07 05:01:48;;;;;;;;;29.25;24.75;;;;;;;;4994984;27;95931;-77
2024/04/07 05:04:13;;;;;;;;;28.25;24.50;;;;;;;;5000724;27;93699;-76
2024/04/07 05:06:39;;;;;;;;;44.00;37.00;;;;;;;;4997097;28;93793;-78
2024/04/07 05:09:05;;;;;;;;;41.50;35.75;;;;;;;;4992858;27;93635;-78
2024/04/07 05:11:30;;;;;;;;;37.25;33.00;;;;;;;;4990777;27;95773;-77
2024/04/07 05:13:56;;;;;;;;;27.00;24.50;;;;;;;;4995290;28;93714;-78
2024/04/07 05:16:22;;;;;;;;;31.75;31.25;;;;;;;;5000173;27;93497;-77
2024/04/07 05:18:48;;;;;;;;;40.75;35.50;;;;;;;;4999700;27;94986;-78
2024/04/07 05:21:14;;;;;;;;;52.25;41.25;;;;;;;;4984836;27;96355;-79
2024/04/07 05:23:40;;;;;;;;;54.67;46.00;;;;;;;;4994334;27;93214;-77
2024/04/07 05:26:12;;;;;;;;;64.33;50.00;;;;;;;;4995362;27;95361;-78
2024/04/07 05:28:38;;;;;;;;;53.25;44.75;;;;;;;;4998532;27;93654;-78
2024/04/07 05:31:05;;;;;;;;;43.75;39.25;;;;;;;;4998508;27;95984;-78
2024/04/07 05:33:33;;;;;;;;;38.25;33.75;;;;;;;;4989281;27;97531;-78
2024/04/07 05:35:58;;;;;;;;;35.25;30.50;;;;;;;;4999999;27;93940;-77
2024/04/07 05:38:24;;;;;;;;;24.00;22.00;;;;;;;;4997421;27;95415;-76
2024/04/07 05:40:56;;;;;;;;;29.50;27.75;;;;;;;;4997763;27;94493;-78
2024/04/07 05:43:22;;;;;;;;;36.00;32.25;;;;;;;;4986104;27;93359;-76
2024/04/07 05:45:47;;;;;;;;;30.00;27.00;;;;;;;;4998911;28;95287;-78
2024/04/07 05:48:13;;;;;;;;;31.75;27.25;;;;;;;;4994501;27;95643;-78
2024/04/07 05:50:38;;;;;;;;;33.75;30.25;;;;;;;;4996502;27;95393;-78
2024/04/07 05:53:04;;;;;;;;;32.75;26.50;;;;;;;;4993259;27;93727;-78
2024/04/07 05:55:33;;;;;;;;;35.50;31.00;;;;;;;;4982244;27;93312;-77
2024/04/07 05:57:58;;;;;;;;;31.50;26.75;;;;;;;;4997396;27;93339;-79
2024/04/07 06:00:24;;;;;;;;;31.25;28.00;;;;;;;;4993430;27;96602;-78
2024/04/07 06:02:49;;;;;;;;;30.50;27.75;;;;;;;;4997457;27;93326;-78
2024/04/07 06:05:15;;;;;;;;;31.75;26.75;;;;;;;;4989266;27;93452;-77
2024/04/07 06:07:40;;;;;;;;;23.00;22.25;;;;;;;;4992884;27;94273;-77
2024/04/07 06:10:06;;;;;;;;;25.00;23.25;;;;;;;;4994868;27;94240;-77
2024/04/07 06:12:31;;;;;;;;;20.00;19.50;;;;;;;;4999543;28;93754;-77
2024/04/07 06:14:57;;;;;;;;;19.25;17.75;;;;;;;;4994594;27;93321;-76
2024/04/07 06:17:22;;;;;;;;;19.75;18.00;;;;;;;;4982180;27;93601;-76
2024/04/07 06:19:48;;;;;;;;;17.25;16.25;;;;;;;;4996556;27;95635;-77
2024/04/07 06:22:13;;;;;;;;;18.50;18.00;;;;;;;;4993248;27;93488;-77
2024/04/07 06:24:39;;;;;;;;;15.75;13.50;;;;;;;;4995797;27;94102;-78
2024/04/07 06:27:05;;;;;;;;;15.75;15.00;;;;;;;;4993803;27;93758;-79
2024/04/07 06:29:31;;;;;;;;;18.25;16.75;;;;;;;;4990130;27;94567;-78
2024/04/07 06:31:57;;;;;;;;;19.75;17.00;;;;;;;;5000169;27;93815;-75
2024/04/07 06:34:22;;;;;;;;;20.75;18.75;;;;;;;;4988310;27;93749;-76
2024/04/07 06:36:48;;;;;;;;;20.50;18.75;;;;;;;;4998830;27;94568;-77
2024/04/07 06:39:13;;;;;;;;;16.33;15.00;;;;;;;;4983766;28;95085;-75
2024/04/07 06:41:39;;;;;;;;;15.67;15.67;;;;;;;;4994635;28;93639;-77
2024/04/07 06:44:04;;;;;;;;;16.00;14.00;;;;;;;;4992213;27;93604;-77
2024/04/07 06:46:30;;;;;;;;;18.00;15.33;;;;;;;;5002571;28;93566;-76
2024/04/07 06:48:55;;;;;;;;;15.00;14.00;;;;;;;;4994640;27;95759;-77
2024/04/07 06:51:21;;;;;;;;;13.00;12.00;;;;;;;;4987270;27;93794;-71
2024/04/07 06:53:47;;;;;;;;;6.00;6.00;;;;;;;;5000059;27;93926;-77
2024/04/07 06:56:12;;;;;;;;;12.00;10.67;;;;;;;;5001514;27;93862;-77
2024/04/07 06:58:38;;;;;;;;;10.00;10.00;;;;;;;;4996779;27;95515;-79
2024/04/07 07:01:03;;;;;;;;;10.67;10.00;;;;;;;;4983384;27;94165;-78
2024/04/07 07:03:29;;;;;;;;;7.67;7.67;;;;;;;;4988244;27;94888;-78
2024/04/07 07:05:54;;;;;;;;;8.33;7.67;;;;;;;;4992464;27;93618;-77
2024/04/07 07:08:20;;;;;;;;;8.00;6.67;;;;;;;;4995708;27;95580;-76
2024/04/07 07:10:59;;;;;;;;;9.67;9.67;;;;;;;;4992279;27;93375;-77
2024/04/07 07:13:25;;;;;;;;;6.00;5.33;;;;;;;;4983631;27;93654;-76
2024/04/07 07:15:50;;;;;;;;;6.67;6.67;;;;;;;;4997119;27;93513;-76
2024/04/07 07:18:16;;;;;;;;;5.33;5.33;;;;;;;;4998133;27;100596;-77
2024/04/07 07:20:41;;;;;;;;;7.00;7.00;;;;;;;;4998207;28;93776;-73
2024/04/07 07:23:07;;;;;;;;;6.00;6.00;;;;;;;;4992920;27;94200;-73
2024/04/07 07:25:32;;;;;;;;;7.00;7.00;;;;;;;;4969931;27;95871;-76
2024/04/07 07:27:58;;;;;;;;;5.00;5.00;;;;;;;;4996341;27;96266;-77
2024/04/07 07:30:23;;;;;;;;;5.33;5.33;;;;;;;;4991591;28;93361;-77
2024/04/07 07:32:50;;;;;;;;;7.33;5.67;;;;;;;;4995092;27;93543;-77
2024/04/07 07:35:16;;;;;;;;;6.67;6.00;;;;;;;;4998116;27;93640;-76
2024/04/07 07:37:41;;;;;;;;;5.00;5.00;;;;;;;;4992745;27;95450;-77
2024/04/07 07:40:07;;;;;;;;;6.67;6.67;;;;;;;;4997391;27;93820;-76
2024/04/07 07:42:32;;;;;;;;;4.00;4.00;;;;;;;;4995437;27;93534;-76
2024/04/07 07:44:58;;;;;;;;;9.00;7.00;;;;;;;;4997378;27;94007;-76
2024/04/07 07:47:23;;;;;;;;;6.67;6.33;;;;;;;;4984064;27;95571;-75
2024/04/07 07:49:49;;;;;;;;;6.33;5.67;;;;;;;;4996862;27;93473;-75
2024/04/07 07:52:14;;;;;;;;;10.67;10.00;;;;;;;;4994332;28;93362;-75
2024/04/07 07:54:40;;;;;;;;;8.67;7.67;;;;;;;;4998226;27;93683;-75
2024/04/07 07:57:06;;;;;;;;;5.67;4.67;;;;;;;;4989678;28;95560;-76
2024/04/07 07:59:31;;;;;;;;;5.67;5.67;;;;;;;;4989170;27;99117;-75
2024/04/07 08:01:57;;;;;;;;;5.67;5.67;;;;;;;;4994819;28;93793;-75
2024/04/07 08:04:22;;;;;;;;;4.67;4.33;;;;;;;;4991242;27;93736;-74
2024/04/07 08:06:48;;;;;;;;;6.00;4.67;;;;;;;;4993207;28;100120;-75
2024/04/07 08:09:13;;;;;;;;;5.33;5.33;;;;;;;;4990618;28;93553;-74
2024/04/07 08:11:39;;;;;;;;;4.00;4.00;;;;;;;;5001386;27;93419;-76
2024/04/07 08:14:04;;;;;;;;;6.00;6.00;;;;;;;;4990236;27;94861;-76
2024/04/07 08:16:29;;;;;;;;;6.00;5.00;;;;;;;;4997092;27;95780;-75
2024/04/07 08:18:55;;;;;;;;;4.33;4.33;;;;;;;;4998083;27;93402;-75
2024/04/07 08:21:20;;;;;;;;;1.00;1.00;;;;;;;;4983072;27;93751;-76
2024/04/07 08:23:47;;;;;;;;;5.00;5.00;;;;;;;;4992282;27;93986;-76
2024/04/07 08:26:13;;;;;;;;;6.00;4.33;;;;;;;;4995784;28;95417;-77
2024/04/07 08:28:38;;;;;;;;;6.00;6.00;;;;;;;;4997298;28;93637;-76
2024/04/07 08:31:04;;;;;;;;;6.00;6.00;;;;;;;;4992582;27;94482;-76
2024/04/07 08:33:29;;;;;;;;;8.00;7.00;;;;;;;;4985881;27;94064;-76
2024/04/07 08:35:55;;;;;;;;;6.67;6.00;;;;;;;;4991954;28;95661;-76
2024/04/07 08:38:20;;;;;;;;;7.00;7.00;;;;;;;;4996070;28;93765;-76
2024/04/07 08:40:47;;;;;;;;;5.00;5.00;;;;;;;;4993268;27;93554;-73
2024/04/07 08:43:12;;;;;;;;;4.67;4.33;;;;;;;;4991505;27;93455;-72
2024/04/07 08:45:39;;;;;;;;;8.00;7.00;;;;;;;;4996227;27;95800;-76
2024/04/07 08:48:07;;;;;;;;;7.33;7.00;;;;;;;;4992758;28;93871;-77
2024/04/07 08:50:32;;;;;;;;;4.00;4.00;;;;;;;;4998774;27;93850;-76
2024/04/07 08:52:58;;;;;;;;;4.00;4.00;;;;;;;;4993762;28;93821;-75
2024/04/07 08:55:23;;;;;;;;;3.33;3.33;;;;;;;;4981501;28;95678;-76
2024/04/07 08:57:50;;;;;;;;;5.00;4.33;;;;;;;;4998309;27;93822;-78
2024/04/07 09:00:15;;;;;;;;;4.00;4.00;;;;;;;;4997010;27;93244;-77
2024/04/07 09:02:41;;;;;;;;;3.00;3.00;;;;;;;;4990912;27;93686;-77
2024/04/07 09:05:07;;;;;;;;;4.33;2.67;;;;;;;;4985983;27;95455;-78
2024/04/07 09:07:32;;;;;;;;;3.00;3.00;;;;;;;;4992711;27;93781;-75
2024/04/07 09:09:58;;;;;;;;;2.00;2.00;;;;;;;;4995684;27;93741;-77
2024/04/07 09:12:23;;;;;;;;;4.00;4.00;;;;;;;;4988660;27;93755;-71
2024/04/07 09:14:49;;;;;;;;;4.33;4.00;;;;;;;;4998647;27;95551;-77
2024/04/07 09:17:14;;;;;;;;;3.67;3.00;;;;;;;;4985424;27;93509;-76
2024/04/07 09:19:40;;;;;;;;;4.00;2.67;;;;;;;;4991832;27;93365;-77
2024/04/07 09:22:06;;;;;;;;;1.33;1.33;;;;;;;;4989627;27;93391;-77
2024/04/07 09:24:32;;;;;;;;;2.00;2.00;;;;;;;;4995188;28;94058;-77
2024/04/07 09:26:59;;;;;;;;;4.00;3.00;;;;;;;;4995963;28;93415;-78
2024/04/07 09:29:28;;;;;;;;;3.00;3.00;;;;;;;;4976614;27;93625;-77
2024/04/07 09:31:54;;;;;;;;;2.33;2.00;;;;;;;;5000166;27;93380;-77
2024/04/07 09:34:20;;;;;;;;;2.33;2.00;;;;;;;;4998159;27;99074;-77
2024/04/07 09:36:45;;;;;;;;;2.00;2.00;;;;;;;;4994033;27;93723;-77
2024/04/07 09:39:11;;;;;;;;;2.00;2.00;;;;;;;;4990068;27;93475;-78
2024/04/07 09:41:36;;;;;;;;;2.67;2.00;;;;;;;;4995217;27;93845;-78
2024/04/07 09:44:08;;;;;;;;;2.00;2.00;;;;;;;;4991851;27;96200;-77
2024/04/07 09:46:38;;;;;;;;;2.00;2.00;;;;;;;;4999453;27;98971;-77
2024/04/07 09:49:07;;;;;;;;;4.00;4.00;;;;;;;;5002490;27;93775;-76
2024/04/07 09:51:33;;;;;;;;;4.67;4.33;;;;;;;;4990405;27;95767;-76
2024/04/07 09:54:02;;;;;;;;;3.33;3.33;;;;;;;;4994166;27;93294;-77
2024/04/07 09:56:29;;;;;;;;;3.00;3.00;;;;;;;;4998427;27;93787;-75
2024/04/07 09:58:54;;;;;;;;;2.00;2.00;;;;;;;;4996717;27;93701;-76
2024/04/07 10:01:21;;;;;;;;;2.33;2.33;;;;;;;;4985152;27;93345;-77
2024/04/07 10:03:50;;;;;;;;;4.00;4.00;;;;;;;;4993145;27;95575;-80
2024/04/07 10:06:15;;;;;;;;;4.00;4.00;;;;;;;;5001451;27;93390;-76
2024/04/07 10:08:42;;;;;;;;;3.00;3.00;;;;;;;;5001841;27;93821;-77
2024/04/07 10:11:14;;;;;;;;;2.00;2.00;;;;;;;;4991110;27;93721;-76
2024/04/07 10:13:39;;;;;;;;;2.00;2.00;;;;;;;;4997780;27;95010;-76
2024/04/07 10:16:05;;;;;;;;;2.00;2.00;;;;;;;;4996513;27;94844;-76
2024/04/07 10:18:31;;;;;;;;;1.67;1.67;;;;;;;;4998966;27;93325;-77
2024/04/07 10:20:57;;;;;;;;;2.67;2.67;;;;;;;;4996269;27;93400;-75
2024/04/07 10:23:26;;;;;;;;;3.33;2.67;;;;;;;;4992793;27;95663;-76
2024/04/07 10:25:55;;;;;;;;;2.00;2.00;;;;;;;;5002209;27;94319;-76
2024/04/07 10:28:21;;;;;;;;;3.33;3.33;;;;;;;;4998105;27;93605;-75
2024/04/07 10:30:57;;;;;;;;;3.00;3.00;;;;;;;;4999131;27;93684;-73
2024/04/07 10:33:27;;;;;;;;;1.00;1.00;;;;;;;;5003244;27;100450;-72
2024/04/07 10:35:56;;;;;;;;;2.00;2.00;;;;;;;;4995392;27;93705;-74
2024/04/07 10:38:22;;;;;;;;;2.00;2.00;;;;;;;;5002916;27;93585;-76
2024/04/07 10:40:47;;;;;;;;;1.33;1.33;;;;;;;;4994831;27;93728;-75
2024/04/07 10:43:13;;;;;;;;;1.00;1.00;;;;;;;;4991007;27;95705;-73
2024/04/07 10:45:41;;;;;;;;;1.00;1.00;;;;;;;;4993135;27;93775;-74
2024/04/07 10:48:08;;;;;;;;;3.67;1.67;;;;;;;;4993553;27;93976;-74
2024/04/07 10:50:34;;;;;;;;;2.00;2.00;;;;;;;;4996357;27;93762;-74
2024/04/07 10:53:06;;;;;;;;;2.33;2.33;;;;;;;;4992904;27;95736;-74
2024/04/07 10:55:34;;;;;;;;;1.00;1.00;;;;;;;;4991124;27;93296;-74
2024/04/07 10:58:00;;;;;;;;;2.33;2.33;;;;;;;;4995213;27;93657;-73
2024/04/07 11:00:26;;;;;;;;;2.33;2.33;;;;;;;;4996345;27;93521;-72
2024/04/07 11:02:53;;;;;;;;;0.00;0.00;;;;;;;;4998492;27;95732;-74
2024/04/07 11:05:18;;;;;;;;;0.25;0.25;;;;;;;;4983928;27;93866;-73
2024/04/07 11:07:44;;;;;;;;;0.00;0.00;;;;;;;;4994804;27;93988;-74
2024/04/07 11:10:10;;;;;;;;;0.00;0.00;;;;;;;;4990356;27;93809;-74
2024/04/07 11:12:36;;;;;;;;;1.00;0.00;;;;;;;;4995927;27;95872;-75
2024/04/07 11:15:13;;;;;;;;;1.00;1.00;;;;;;;;4994008;27;94007;-75
2024/04/07 11:17:38;;;;;;;;;0.00;0.00;;;;;;;;4996780;27;93515;-75
2024/04/07 11:20:04;;;;;;;;;1.00;1.00;;;;;;;;4996002;27;93654;-73
2024/04/07 11:22:29;;;;;;;;;0.00;0.00;;;;;;;;4999328;27;99360;-73
2024/04/07 11:24:55;;;;;;;;;0.00;0.00;;;;;;;;4998417;27;93921;-73
2024/04/07 11:27:20;;;;;;;;;0.67;0.67;;;;;;;;4982556;27;93359;-75
2024/04/07 11:29:46;;;;;;;;;0.00;0.00;;;;;;;;5000337;27;94198;-73
2024/04/07 11:32:12;;;;;;;;;0.50;0.50;;;;;;;;4997449;27;95705;-74
2024/04/07 11:34:38;;;;;;;;;0.25;0.25;;;;;;;;4995488;27;93302;-75
2024/04/07 11:37:03;;;;;;;;;0.50;0.00;;;;;;;;4993071;27;93840;-74
2024/04/07 11:39:30;;;;;;;;;0.00;0.00;;;;;;;;4989347;27;93988;-74
2024/04/07 11:41:56;;;;;;;;;0.00;0.00;;;;;;;;4993233;27;96094;-72
2024/04/07 11:44:21;;;;;;;;;0.00;0.00;;;;;;;;4999529;27;93414;-73
2024/04/07 11:46:47;;;;;;;;;0.00;0.00;;;;;;;;4994742;27;95485;-74
2024/04/07 11:49:13;;;;;;;;;0.00;0.00;;;;;;;;4983957;27;93826;-72
2024/04/07 11:51:38;;;;;;;;;0.00;0.00;;;;;;;;4994958;27;96039;-75
2024/04/07 11:54:04;;;;;;;;;1.00;1.00;;;;;;;;4994954;27;93642;-74
2024/04/07 11:56:29;;;;;;;;;0.25;0.00;;;;;;;;4990257;27;93549;-73
2024/04/07 11:58:55;;;;;;;;;0.00;0.00;;;;;;;;4994259;28;93725;-74
2024/04/07 12:01:20;;;;;;;;;0.00;0.00;;;;;;;;4982760;28;96401;-73
2024/04/07 12:03:46;;;;;;;;;0.00;0.00;;;;;;;;4994905;27;93371;-74
2024/04/07 12:06:11;;;;;;;;;0.00;0.00;;;;;;;;4995398;27;93303;-75
2024/04/07 12:08:37;;;;;;;;;0.00;0.00;;;;;;;;4991548;27;93260;-74
2024/04/07 12:11:03;;;;;;;;;1.00;1.00;;;;;;;;4994328;27;97098;-74
2024/04/07 12:13:28;;;;;;;;;1.50;1.00;;;;;;;;4982337;27;94330;-73
2024/04/07 12:15:53;;;;;;;;;1.00;1.00;;;;;;;;4994267;27;93723;-73
2024/04/07 12:18:19;;;;;;;;;1.00;1.00;;;;;;;;4988118;27;93992;-73
2024/04/07 12:20:44;;;;;;;;;1.67;1.67;;;;;;;;4990680;27;95510;-74
2024/04/07 12:23:10;;;;;;;;;1.00;1.00;;;;;;;;4982662;27;93896;-75
2024/04/07 12:25:35;;;;;;;;;1.50;1.50;;;;;;;;4991717;27;93652;-74
2024/04/07 12:28:02;;;;;;;;;0.00;0.00;;;;;;;;4996496;27;93988;-75
2024/04/07 12:30:27;;;;;;;;;2.00;2.00;;;;;;;;4995587;28;95744;-75
2024/04/07 12:32:52;;;;;;;;;0.00;0.00;;;;;;;;4998801;27;94278;-76
2024/04/07 12:35:18;;;;;;;;;0.67;0.67;;;;;;;;4987581;27;95409;-75
2024/04/07 12:37:43;;;;;;;;;1.50;1.50;;;;;;;;4995983;27;93822;-75
2024/04/07 12:40:09;;;;;;;;;1.00;1.00;;;;;;;;4988622;27;95651;-75
2024/04/07 12:42:34;;;;;;;;;1.25;1.25;;;;;;;;4999277;27;93189;-75
2024/04/07 12:45:03;;;;;;;;;1.00;1.00;;;;;;;;4993324;27;93568;-74
2024/04/07 12:47:28;;;;;;;;;0.75;0.50;;;;;;;;4983240;27;93526;-75
2024/04/07 12:49:54;;;;;;;;;0.00;0.00;;;;;;;;4991738;28;99354;-76
2024/04/07 12:52:19;;;;;;;;;0.33;0.33;;;;;;;;5000767;27;93848;-74
2024/04/07 12:54:45;;;;;;;;;1.00;1.00;;;;;;;;4987304;27;94221;-78
2024/04/07 12:57:10;;;;;;;;;1.00;1.00;;;;;;;;4981869;28;93745;-77
2024/04/07 12:59:35;;;;;;;;;1.00;1.00;;;;;;;;4985381;27;94980;-77
2024/04/07 13:02:01;;;;;;;;;2.00;1.25;;;;;;;;4993944;27;93661;-76
2024/04/07 13:04:26;;;;;;;;;0.25;0.25;;;;;;;;4992369;28;93613;-76
2024/04/07 13:06:52;;;;;;;;;0.75;0.25;;;;;;;;4991046;27;93735;-77
2024/04/07 13:09:20;;;;;;;;;1.00;1.00;;;;;;;;4975967;27;96906;-76
2024/04/07 13:11:45;;;;;;;;;3.67;3.67;;;;;;;;4994692;27;94467;-77
2024/04/07 13:14:11;;;;;;;;;2.33;2.33;;;;;;;;4993260;27;93322;-76
2024/04/07 13:16:38;;;;;;;;;1.33;1.33;;;;;;;;4988144;28;95060;-76
2024/04/07 13:19:04;;;;;;;;;1.00;1.00;;;;;;;;4994919;28;95668;-76
2024/04/07 13:21:29;;;;;;;;;0.00;0.00;;;;;;;;4981808;27;94540;-77
2024/04/07 13:23:55;;;;;;;;;3.67;3.00;;;;;;;;4987541;27;93409;-77
2024/04/07 13:26:20;;;;;;;;;2.00;2.00;;;;;;;;4997429;27;93662;-74
2024/04/07 13:28:46;;;;;;;;;3.00;3.00;;;;;;;;4979810;28;95833;-76
2024/04/07 13:31:12;;;;;;;;;2.67;2.33;;;;;;;;4987394;27;93482;-76
2024/04/07 13:33:37;;;;;;;;;1.00;1.00;;;;;;;;4994682;27;93402;-71
2024/04/07 13:36:03;;;;;;;;;2.00;2.00;;;;;;;;4911386;28;93686;-77
2024/04/07 13:38:28;;;;;;;;;0.00;0.00;;;;;;;;4963638;27;95500;-76
2024/04/07 13:40:57;;;;;;;;;0.25;0.25;;;;;;;;4783179;27;93613;-76
2024/04/07 13:43:22;;;;;;;;;0.00;0.00;;;;;;;;4704525;28;98968;-74
2024/04/07 13:45:48;;;;;;;;;0.50;0.50;;;;;;;;4920485;28;94251;-77
2024/04/07 13:48:14;;;;;;;;;0.00;0.00;;;;;;;;4993723;27;95729;-77
2024/04/07 13:50:39;;;;;;;;;0.75;0.75;;;;;;;;5017605;27;94029;-76
2024/04/07 13:53:06;;;;;;;;;0.50;0.50;;;;;;;;4994291;27;93778;-76
2024/04/07 13:55:32;;;;;;;;;1.00;1.00;;;;;;;;4974344;27;93774;-76
2024/04/07 13:57:57;;;;;;;;;1.00;1.00;;;;;;;;4992974;27;96240;-76
2024/04/07 14:00:23;;;;;;;;;2.50;1.75;;;;;;;;4990561;27;94297;-70
2024/04/07 14:02:48;;;;;;;;;1.00;1.00;;;;;;;;4991491;27;94428;-75
2024/04/07 14:05:14;;;;;;;;;0.75;0.00;;;;;;;;4995511;27;93509;-74
2024/04/07 14:07:39;;;;;;;;;1.00;1.00;;;;;;;;4979848;27;95663;-76
2024/04/07 14:10:05;;;;;;;;;1.00;1.00;;;;;;;;4989200;27;93902;-75
2024/04/07 14:12:30;;;;;;;;;2.00;1.00;;;;;;;;4981342;27;93762;-76
2024/04/07 14:14:56;;;;;;;;;2.00;2.00;;;;;;;;4963950;27;93576;-69
2024/04/07 14:17:21;;;;;;;;;2.75;2.75;;;;;;;;4954373;27;100134;-76
2024/04/07 14:19:47;;;;;;;;;1.00;1.00;;;;;;;;4743164;27;93811;-74
2024/04/07 14:22:13;;;;;;;;;2.00;1.00;;;;;;;;4798747;28;93408;-76
2024/04/07 14:24:38;;;;;;;;;3.00;3.00;;;;;;;;4828798;28;93450;-76
2024/04/07 14:27:06;;;;;;;;;1.33;1.33;;;;;;;;4699263;27;95427;-76